Time;durP1;ratioP1;P1;durP2;ratioP2;P2;SDS_P1;SDS_P2;PMS_P1;PMS_P2;Temp;Humidity;BMP_temperature;BMP_pressure;BME280_temperature;BME280_humidity;BME280_pressure;Samples;Min_cycle;Max_cycle;Signal;HPM_P1;HPM_P2
2023/05/06 00:00:39;;;;;;;4.63;2.70;;;12.00;99.90;12.00;100592.00;;;;4925501;28;110889;-63
2023/05/06 00:03:05;;;;;;;2.97;2.67;;;12.00;99.90;11.90;100588.00;;;;4926194;28;92272;-63
2023/05/06 00:05:31;;;;;;;6.67;2.93;;;12.00;99.90;11.90;100569.00;;;;4925312;28;108698;-63
2023/05/06 00:07:56;;;;;;;5.57;2.70;;;11.90;99.90;11.90;100583.00;;;;4924633;28;120869;-63
2023/05/06 00:10:22;;;;;;;5.00;3.67;;;11.90;99.90;11.80;100570.00;;;;4924131;28;93854;-63
2023/05/06 00:12:48;;;;;;;5.30;3.47;;;11.90;99.90;11.80;100570.00;;;;4924671;28;92958;-63
2023/05/06 00:15:14;;;;;;;4.03;3.37;;;11.80;99.90;11.80;100574.00;;;;4921497;28;109861;-62
2023/05/06 00:17:39;;;;;;;4.00;2.83;;;11.80;99.90;11.80;100572.00;;;;4923608;28;94034;-63
2023/05/06 00:20:06;;;;;;;3.10;2.83;;;11.80;99.90;11.80;100579.00;;;;4921729;28;122097;-63
2023/05/06 00:22:32;;;;;;;3.57;2.70;;;11.70;99.90;11.70;100578.00;;;;4924201;28;93119;-62
2023/05/06 00:24:58;;;;;;;2.90;2.70;;;11.80;99.90;11.70;100572.00;;;;4924193;28;108528;-62
2023/05/06 00:27:23;;;;;;;3.27;2.97;;;11.80;99.90;11.70;100574.00;;;;4924773;28;122080;-62
2023/05/06 00:29:49;;;;;;;4.93;3.83;;;11.70;99.90;11.70;100566.00;;;;4924318;28;122352;-63
2023/05/06 00:32:15;;;;;;;5.90;4.23;;;11.70;99.90;11.70;100573.00;;;;4925175;28;108757;-63
2023/05/06 00:34:41;;;;;;;6.77;3.07;;;11.80;99.90;11.70;100568.00;;;;4924567;28;108036;-63
2023/05/06 00:37:06;;;;;;;3.13;2.87;;;11.70;99.90;11.70;100576.00;;;;4926907;28;112873;-64
2023/05/06 00:39:33;;;;;;;4.97;3.47;;;11.70;99.90;11.70;100558.00;;;;4922742;28;123051;-64
2023/05/06 00:42:02;;;;;;;3.73;3.00;;;11.70;99.90;11.70;100558.00;;;;4926245;28;92980;-62
2023/05/06 00:44:30;;;;;;;3.10;2.83;;;11.70;99.90;11.70;100564.00;;;;4925193;28;92998;-64
2023/05/06 00:46:59;;;;;;;5.23;3.20;;;11.70;99.90;11.70;100559.00;;;;4926379;28;93988;-63
2023/05/06 00:49:27;;;;;;;4.63;3.17;;;11.70;99.90;11.60;100562.00;;;;4926949;28;93738;-64
2023/05/06 00:51:55;;;;;;;3.97;2.53;;;11.70;99.90;11.70;100563.00;;;;4929260;28;92092;-63
2023/05/06 00:54:23;;;;;;;3.00;2.67;;;11.70;99.90;11.60;100564.00;;;;4931069;28;93140;-63
2023/05/06 00:56:49;;;;;;;4.07;2.97;;;11.60;99.90;11.60;100569.00;;;;4924982;28;93007;-64
2023/05/06 00:59:15;;;;;;;3.87;2.30;;;11.60;99.90;11.60;100562.00;;;;4925786;28;104897;-64
2023/05/06 01:01:40;;;;;;;3.43;3.10;;;11.60;99.90;11.60;100556.00;;;;4924490;28;110757;-61
2023/05/06 01:04:07;;;;;;;4.53;2.47;;;11.60;99.90;11.60;100559.00;;;;4926396;28;93013;-62
2023/05/06 01:06:56;;;;;;;4.73;2.90;;;11.60;99.90;11.50;100543.00;;;;4924787;28;94197;-62
2023/05/06 01:09:30;;;;;;;7.23;3.97;;;11.50;99.90;11.50;100539.00;;;;4928615;28;92888;-62
2023/05/06 01:12:26;;;;;;;3.53;3.03;;;11.50;99.90;11.40;100546.00;;;;4924554;28;92993;-63
2023/05/06 01:15:08;;;;;;;6.57;3.13;;;11.50;99.90;11.40;100543.00;;;;4928071;28;93138;-61
2023/05/06 01:17:38;;;;;;;3.90;3.30;;;11.40;99.90;11.30;100539.00;;;;4927770;28;92980;-62
2023/05/06 01:20:06;;;;;;;6.53;3.27;;;11.10;99.90;11.30;100540.00;;;;4924910;28;117396;-61
2023/05/06 01:22:35;;;;;;;6.43;2.60;;;11.30;99.90;11.20;100543.00;;;;4924983;28;93014;-63
2023/05/06 01:25:01;;;;;;;4.20;3.33;;;11.20;99.90;11.20;100534.00;;;;4926302;28;93858;-63
2023/05/06 01:27:27;;;;;;;4.77;3.07;;;11.20;99.90;11.20;100527.00;;;;4925880;28;121906;-64
2023/05/06 01:29:53;;;;;;;9.93;4.20;;;11.20;99.90;11.20;100536.00;;;;4924088;28;93388;-63
2023/05/06 01:32:25;;;;;;;3.87;3.07;;;11.20;99.90;11.10;100529.00;;;;4923734;28;109045;-62
2023/05/06 01:35:12;;;;;;;4.53;3.40;;;11.50;99.90;11.10;100530.00;;;;4925667;28;92804;-64
2023/05/06 01:38:08;;;;;;;3.03;2.47;;;11.10;99.90;11.10;100516.00;;;;4927923;28;95320;-63
2023/05/06 01:40:35;;;;;;;4.50;3.83;;;11.10;99.90;11.10;100505.00;;;;4922936;28;114632;-61
2023/05/06 01:43:04;;;;;;;4.37;3.87;;;11.10;99.90;11.10;100511.00;;;;4927660;28;92436;-62
2023/05/06 01:45:32;;;;;;;7.23;3.10;;;11.10;99.90;11.10;100507.00;;;;4924749;28;92913;-62
2023/05/06 01:47:58;;;;;;;4.63;3.40;;;11.10;99.90;11.10;100511.00;;;;4926080;28;99421;-62
2023/05/06 01:50:25;;;;;;;3.23;2.93;;;11.10;99.90;11.10;100503.00;;;;4924200;28;124074;-62
2023/05/06 01:53:02;;;;;;;3.27;2.97;;;11.10;99.90;11.10;100503.00;;;;4926017;28;93061;-63
2023/05/06 01:55:27;;;;;;;8.73;4.10;;;11.10;99.90;11.10;100505.00;;;;4926864;28;93077;-64
2023/05/06 01:57:55;;;;;;;5.30;3.33;;;11.10;99.90;11.00;100505.00;;;;4924585;28;117760;-64
2023/05/06 02:00:23;;;;;;;10.30;3.70;;;11.00;99.90;11.00;100517.00;;;;4926101;28;93760;-63
2023/05/06 02:02:49;;;;;;;3.20;2.93;;;11.00;99.90;11.00;100507.00;;;;4921839;28;92883;-64
2023/05/06 02:05:15;;;;;;;5.63;3.63;;;11.00;99.90;11.00;100512.00;;;;4923784;28;92715;-62
2023/05/06 02:07:41;;;;;;;4.03;3.50;;;11.00;99.90;11.00;100515.00;;;;4920912;28;122460;-63
2023/05/06 02:10:07;;;;;;;4.50;3.63;;;11.00;99.90;11.00;100510.00;;;;4921840;28;121929;-64
2023/05/06 02:12:33;;;;;;;5.90;4.00;;;11.00;99.90;11.00;100502.00;;;;4926837;28;93632;-64
2023/05/06 02:14:59;;;;;;;8.20;3.13;;;11.00;99.90;11.00;100511.00;;;;4922759;28;108518;-64
2023/05/06 02:17:25;;;;;;;5.43;3.80;;;11.00;99.90;11.00;100516.00;;;;4923536;28;122984;-64
2023/05/06 02:19:50;;;;;;;8.17;3.33;;;11.00;99.90;10.90;100514.00;;;;4921589;28;108845;-63
2023/05/06 02:22:16;;;;;;;4.03;3.33;;;10.90;99.90;10.90;100506.00;;;;4923499;28;110975;-64
2023/05/06 02:24:41;;;;;;;5.43;3.43;;;11.00;99.90;10.90;100496.00;;;;4923077;28;108587;-65
2023/05/06 02:27:07;;;;;;;4.23;3.40;;;10.90;99.90;10.90;100484.00;;;;4925544;28;121688;-64
2023/05/06 02:29:33;;;;;;;6.77;4.17;;;10.90;99.90;10.90;100495.00;;;;4921042;28;123391;-63
2023/05/06 02:31:59;;;;;;;5.23;3.53;;;10.90;99.90;10.90;100494.00;;;;4923165;28;109585;-63
2023/05/06 02:34:24;;;;;;;2.97;2.77;;;10.90;99.90;10.90;100490.00;;;;4923053;28;108698;-65
2023/05/06 02:36:50;;;;;;;6.73;3.07;;;10.90;99.90;10.90;100493.00;;;;4928882;28;93203;-65
2023/05/06 02:39:16;;;;;;;3.50;3.17;;;10.90;99.90;10.90;100493.00;;;;4925568;28;93967;-65
2023/05/06 02:41:41;;;;;;;4.57;3.17;;;10.90;99.90;10.90;100489.00;;;;4927261;28;92956;-65
2023/05/06 02:44:07;;;;;;;4.93;3.97;;;10.90;99.90;10.90;100481.00;;;;4923174;28;106878;-63
2023/05/06 02:46:33;;;;;;;5.20;4.10;;;10.90;99.90;10.90;100488.00;;;;4924929;28;121946;-63
2023/05/06 02:49:00;;;;;;;5.60;3.93;;;10.90;99.90;10.90;100478.00;;;;4924251;28;122374;-65
2023/05/06 02:51:25;;;;;;;7.00;3.27;;;10.90;99.90;10.90;100481.00;;;;4926069;28;109136;-65
2023/05/06 02:53:51;;;;;;;6.93;3.73;;;10.90;99.90;10.90;100483.00;;;;4922664;28;109262;-66
2023/05/06 02:56:17;;;;;;;8.20;3.87;;;10.60;99.90;10.90;100467.00;;;;4926197;28;93632;-64
2023/05/06 02:58:42;;;;;;;5.03;3.03;;;10.90;99.90;10.90;100474.00;;;;4919991;28;122416;-65
2023/05/06 03:01:08;;;;;;;3.77;3.43;;;10.90;99.90;10.90;100479.00;;;;4922249;28;108712;-63
2023/05/06 03:03:34;;;;;;;9.50;4.03;;;10.90;99.90;10.90;100476.00;;;;4920150;28;108160;-65
2023/05/06 03:05:59;;;;;;;4.10;3.70;;;10.90;99.90;10.90;100473.00;;;;4924733;28;99090;-63
2023/05/06 03:08:25;;;;;;;5.17;4.67;;;10.90;99.90;10.90;100474.00;;;;4922694;28;121419;-66
2023/05/06 03:10:51;;;;;;;5.87;3.63;;;10.90;99.90;10.90;100464.00;;;;4922644;28;111062;-62
2023/05/06 03:13:16;;;;;;;5.13;3.63;;;11.00;99.90;11.00;100464.00;;;;4924314;28;93056;-63
2023/05/06 03:15:42;;;;;;;7.03;4.13;;;11.00;99.90;11.00;100460.00;;;;4920378;28;121816;-64
2023/05/06 03:18:08;;;;;;;3.33;3.03;;;11.00;99.90;11.00;100461.00;;;;4923296;28;113880;-64
2023/05/06 03:20:33;;;;;;;3.40;3.10;;;11.00;99.90;11.00;100479.00;;;;4921537;28;111413;-64
2023/05/06 03:22:59;;;;;;;5.77;4.37;;;11.00;99.90;11.00;100469.00;;;;4923932;28;92964;-64
2023/05/06 03:25:25;;;;;;;4.27;3.87;;;11.00;99.90;11.00;100464.00;;;;4923170;28;93740;-64
2023/05/06 03:27:51;;;;;;;6.60;3.63;;;11.00;99.90;11.00;100464.00;;;;4922229;28;121782;-64
2023/05/06 03:30:16;;;;;;;4.60;3.80;;;11.00;99.90;11.00;100450.00;;;;4922776;28;110306;-64
2023/05/06 03:32:42;;;;;;;6.40;3.57;;;11.10;99.90;11.10;100455.00;;;;4922678;28;109331;-64
2023/05/06 03:35:10;;;;;;;3.33;3.00;;;11.10;99.90;11.10;100469.00;;;;4923795;28;93960;-64
2023/05/06 03:37:35;;;;;;;4.87;2.87;;;11.10;99.90;11.10;100458.00;;;;4923256;28;93741;-63
2023/05/06 03:40:03;;;;;;;6.30;3.77;;;11.10;99.90;11.10;100454.00;;;;4926313;28;109719;-64
2023/05/06 03:42:29;;;;;;;3.50;3.17;;;11.10;99.90;11.10;100453.00;;;;4923534;28;93104;-63
2023/05/06 03:44:54;;;;;;;5.10;3.60;;;11.10;99.90;11.10;100456.00;;;;4925197;28;112391;-63
2023/05/06 03:47:20;;;;;;;4.03;3.63;;;11.10;99.90;11.10;100449.00;;;;4925891;28;121016;-62
2023/05/06 03:49:46;;;;;;;4.60;3.73;;;11.10;99.90;11.10;100455.00;;;;4940767;28;109740;-63
2023/05/06 03:52:11;;;;;;;4.90;2.93;;;11.10;99.90;11.10;100448.00;;;;4923253;28;108604;-63
2023/05/06 03:54:37;;;;;;;5.17;3.40;;;11.10;99.90;11.10;100443.00;;;;4921456;28;122006;-61
2023/05/06 03:57:03;;;;;;;5.03;3.47;;;11.10;99.90;11.10;100443.00;;;;4935096;28;122715;-63
2023/05/06 03:59:28;;;;;;;8.17;5.03;;;11.10;99.90;11.10;100448.00;;;;4923131;28;92654;-62
2023/05/06 04:01:55;;;;;;;4.20;3.80;;;11.10;99.90;11.20;100451.00;;;;4925710;28;104549;-64
2023/05/06 04:04:20;;;;;;;5.50;3.77;;;11.20;99.90;11.20;100452.00;;;;4930891;28;93122;-63
2023/05/06 04:06:46;;;;;;;4.43;3.90;;;11.20;99.90;11.20;100453.00;;;;4927631;28;122021;-63
2023/05/06 04:09:11;;;;;;;7.33;4.03;;;11.20;99.90;11.20;100450.00;;;;4931363;28;92384;-64
2023/05/06 04:11:37;;;;;;;4.67;4.27;;;11.20;99.90;11.20;100451.00;;;;4953285;28;108136;-63
2023/05/06 04:14:03;;;;;;;3.83;3.43;;;11.20;99.90;11.20;100448.00;;;;4927170;28;121929;-63
2023/05/06 04:16:28;;;;;;;4.27;3.47;;;11.20;99.90;11.20;100448.00;;;;4941377;28;94198;-63
2023/05/06 04:18:54;;;;;;;13.10;4.53;;;11.20;99.90;11.20;100451.00;;;;4926828;28;110457;-64
2023/05/06 04:21:20;;;;;;;9.80;4.00;;;11.20;99.90;11.30;100461.00;;;;4929757;28;109578;-63
2023/05/06 04:24:02;;;;;;;4.33;3.30;;;11.30;99.90;11.20;100456.00;;;;4928758;28;95033;-65
2023/05/06 04:26:28;;;;;;;5.43;4.00;;;11.30;99.90;11.30;100453.00;;;;4929122;28;93260;-64
2023/05/06 04:28:54;;;;;;;10.80;4.30;;;11.30;99.90;11.30;100456.00;;;;4929227;28;109088;-64
2023/05/06 04:31:20;;;;;;;7.80;4.63;;;11.30;99.90;11.30;100460.00;;;;4927994;28;92783;-64
2023/05/06 04:33:45;;;;;;;16.00;3.80;;;11.30;99.90;11.30;100465.00;;;;4928674;28;100365;-63
2023/05/06 04:36:11;;;;;;;5.80;4.40;;;11.30;99.90;11.30;100470.00;;;;4927004;28;121602;-63
2023/05/06 04:38:37;;;;;;;4.43;3.27;;;11.40;99.90;11.40;100456.00;;;;4930906;28;93196;-63
2023/05/06 04:41:04;;;;;;;4.27;3.33;;;11.30;99.90;11.40;100468.00;;;;4929272;28;93761;-62
2023/05/06 04:43:30;;;;;;;7.23;3.90;;;11.40;99.90;11.40;100470.00;;;;4919958;28;93174;-63
2023/05/06 04:45:56;;;;;;;8.10;4.43;;;11.40;99.90;11.40;100469.00;;;;4926570;28;93615;-63
2023/05/06 04:48:22;;;;;;;7.87;2.77;;;11.40;99.90;11.40;100469.00;;;;4931340;28;93222;-63
2023/05/06 04:50:49;;;;;;;4.37;3.60;;;11.40;99.90;11.50;100468.00;;;;4928263;28;92946;-62
2023/05/06 04:53:15;;;;;;;5.67;3.90;;;11.40;99.90;11.50;100469.00;;;;4929022;28;93336;-63
2023/05/06 04:55:41;;;;;;;4.03;2.93;;;11.50;99.90;11.50;100457.00;;;;4930171;28;93212;-63
2023/05/06 04:58:06;;;;;;;5.23;3.43;;;11.50;99.90;11.50;100466.00;;;;4930510;28;106664;-63
2023/05/06 05:00:32;;;;;;;5.47;3.23;;;11.50;99.90;11.60;100460.00;;;;4932042;28;105846;-63
2023/05/06 05:02:58;;;;;;;5.90;4.20;;;11.60;99.90;11.60;100465.00;;;;4926827;28;115929;-63
2023/05/06 05:05:26;;;;;;;3.80;2.90;;;11.60;99.90;11.50;100461.00;;;;4927573;28;94017;-63
2023/05/06 05:07:51;;;;;;;4.83;3.80;;;11.50;99.90;11.60;100466.00;;;;4929383;28;92929;-62
2023/05/06 05:10:17;;;;;;;5.80;3.83;;;11.60;99.90;11.60;100465.00;;;;4927954;28;107184;-63
2023/05/06 05:12:43;;;;;;;5.50;4.33;;;11.60;99.90;11.60;100469.00;;;;4927936;28;123162;-63
2023/05/06 05:15:09;;;;;;;4.37;3.73;;;11.60;99.90;11.60;100473.00;;;;4921348;28;122928;-62
2023/05/06 05:17:36;;;;;;;5.10;3.07;;;11.60;99.90;11.60;100480.00;;;;4922765;28;101711;-63
2023/05/06 05:20:02;;;;;;;6.03;4.83;;;11.60;99.90;11.70;100475.00;;;;4923391;28;93035;-63
2023/05/06 05:22:28;;;;;;;4.33;3.80;;;11.70;99.90;11.70;100471.00;;;;4924250;28;93295;-63
2023/05/06 05:24:54;;;;;;;4.13;3.47;;;11.70;99.90;11.70;100487.00;;;;4918837;28;121662;-63
2023/05/06 05:27:19;;;;;;;4.10;3.23;;;11.70;99.90;11.80;100486.00;;;;4922402;28;108620;-63
2023/05/06 05:29:45;;;;;;;5.93;4.77;;;11.70;99.90;11.80;100481.00;;;;4920647;28;109125;-64
2023/05/06 05:32:11;;;;;;;5.10;4.60;;;11.80;99.90;11.80;100482.00;;;;4917957;28;120785;-63
2023/05/06 05:34:37;;;;;;;5.97;4.07;;;11.80;99.90;11.80;100477.00;;;;4920316;28;93485;-62
2023/05/06 05:37:03;;;;;;;5.90;3.60;;;11.80;99.90;11.80;100485.00;;;;4944994;28;109072;-62
2023/05/06 05:39:28;;;;;;;4.83;3.87;;;11.80;99.90;11.80;100482.00;;;;4934778;28;93085;-64
2023/05/06 05:41:54;;;;;;;4.37;3.43;;;11.80;99.90;11.90;100485.00;;;;4918778;28;123705;-64
2023/05/06 05:44:20;;;;;;;4.67;3.73;;;11.90;99.90;11.90;100475.00;;;;4924329;28;93219;-63
2023/05/06 05:46:45;;;;;;;8.57;4.90;;;11.90;99.90;12.00;100477.00;;;;4921913;28;92377;-63
2023/05/06 05:49:11;;;;;;;4.97;3.70;;;11.90;99.90;12.00;100486.00;;;;4919960;28;108068;-62
2023/05/06 05:51:37;;;;;;;5.53;3.80;;;12.00;99.90;12.10;100481.00;;;;4924676;28;122778;-62
2023/05/06 05:54:02;;;;;;;4.77;3.83;;;12.00;99.90;12.10;100481.00;;;;4945828;28;123806;-62
2023/05/06 05:56:28;;;;;;;6.87;4.33;;;12.10;99.90;12.20;100491.00;;;;4920408;28;109471;-63
2023/05/06 05:58:54;;;;;;;6.20;4.30;;;12.10;99.90;12.20;100479.00;;;;4920900;28;109440;-63
2023/05/06 06:01:19;;;;;;;6.37;4.30;;;12.20;99.90;12.20;100485.00;;;;4922779;28;122368;-64
2023/05/06 06:03:52;;;;;;;6.83;4.63;;;12.20;99.90;12.30;100487.00;;;;4930652;28;107225;-63
2023/05/06 06:06:37;;;;;;;5.60;5.03;;;12.30;99.90;12.30;100486.00;;;;4926781;28;92819;-62
2023/05/06 06:09:03;;;;;;;5.10;4.23;;;12.30;99.90;12.40;100489.00;;;;4936372;28;108018;-62
2023/05/06 06:11:29;;;;;;;4.07;3.40;;;12.40;99.90;12.40;100500.00;;;;4944493;28;92934;-62
2023/05/06 06:13:55;;;;;;;5.67;4.50;;;12.40;99.90;12.50;100497.00;;;;4954115;28;93122;-62
2023/05/06 06:16:20;;;;;;;6.13;4.20;;;12.40;99.90;12.50;100501.00;;;;4937878;28;110489;-63
2023/05/06 06:18:46;;;;;;;6.30;3.97;;;12.50;99.90;12.60;100503.00;;;;4906278;28;108694;-63
2023/05/06 06:21:34;;;;;;;5.73;3.90;;;12.60;99.90;12.70;100498.00;;;;4936305;28;123478;-62
2023/05/06 06:24:00;;;;;;;5.07;3.23;;;12.70;99.90;12.80;100493.00;;;;4935938;28;93287;-61
2023/05/06 06:26:26;;;;;;;4.63;4.23;;;12.70;99.90;12.80;100500.00;;;;4921867;28;93148;-64
2023/05/06 06:28:51;;;;;;;7.47;4.10;;;12.80;99.90;12.90;100504.00;;;;4923413;28;108837;-62
2023/05/06 06:31:17;;;;;;;6.40;4.37;;;12.80;99.90;12.90;100501.00;;;;4919521;28;121029;-63
2023/05/06 06:33:45;;;;;;;6.97;4.47;;;12.90;99.90;12.90;100510.00;;;;4922405;28;93234;-62
2023/05/06 06:36:11;;;;;;;5.87;4.87;;;12.90;99.90;13.00;100516.00;;;;4923141;28;110984;-59
2023/05/06 06:38:43;;;;;;;22.13;13.60;;;12.90;99.90;13.00;100505.00;;;;4922755;28;108161;-62
2023/05/06 06:41:11;;;;;;;7.30;6.30;;;13.00;99.90;13.00;100517.00;;;;4918551;28;107142;-64
2023/05/06 06:43:37;;;;;;;16.80;9.43;;;13.10;99.90;13.10;100516.00;;;;4919878;28;121574;-61
2023/05/06 06:46:03;;;;;;;10.87;7.03;;;13.10;99.90;13.10;100511.00;;;;4921465;28;110743;-63
2023/05/06 06:48:28;;;;;;;10.80;9.00;;;13.10;99.90;13.10;100525.00;;;;4922594;28;92915;-63
2023/05/06 06:50:54;;;;;;;6.00;5.27;;;13.10;99.90;13.20;100531.00;;;;4915755;28;121895;-63
2023/05/06 06:53:20;;;;;;;8.73;7.23;;;13.20;99.90;13.20;100528.00;;;;4911169;28;109216;-62
2023/05/06 06:55:45;;;;;;;12.13;7.83;;;13.20;99.90;13.30;100532.00;;;;4922654;28;110736;-61
2023/05/06 06:58:11;;;;;;;12.30;7.37;;;13.30;99.90;13.30;100535.00;;;;4921610;28;109232;-61
2023/05/06 07:00:37;;;;;;;12.73;8.40;;;13.30;99.90;13.40;100538.00;;;;4923407;28;120559;-62
2023/05/06 07:03:02;;;;;;;13.43;6.77;;;13.30;99.90;13.40;100539.00;;;;4921167;28;123155;-62
2023/05/06 07:05:28;;;;;;;13.20;7.40;;;13.40;99.90;13.50;100533.00;;;;4924889;28;110902;-62
2023/05/06 07:07:54;;;;;;;9.20;5.73;;;13.50;99.90;13.60;100534.00;;;;4921641;28;94213;-62
2023/05/06 07:10:21;;;;;;;8.30;5.93;;;13.50;99.90;13.60;100542.00;;;;4920298;28;94230;-63
2023/05/06 07:12:46;;;;;;;6.53;4.77;;;13.60;99.90;13.70;100537.00;;;;4921035;28;116048;-61
2023/05/06 07:15:12;;;;;;;5.40;4.57;;;13.60;99.90;13.70;100542.00;;;;4920368;28;103796;-61
2023/05/06 07:17:38;;;;;;;8.93;5.03;;;13.60;99.90;13.70;100548.00;;;;4920274;28;107867;-62
2023/05/06 07:20:04;;;;;;;8.27;5.27;;;13.70;99.90;13.70;100546.00;;;;4919071;28;106055;-64
2023/05/06 07:22:30;;;;;;;8.07;5.53;;;13.70;99.90;13.70;100553.00;;;;4920933;28;109371;-63
2023/05/06 07:24:55;;;;;;;7.60;4.83;;;13.70;99.90;13.70;100542.00;;;;4922171;28;110448;-64
2023/05/06 07:27:22;;;;;;;6.20;5.27;;;13.70;99.90;13.70;100548.00;;;;4922795;28;108826;-61
2023/05/06 07:29:48;;;;;;;6.80;5.67;;;13.60;99.90;13.70;100544.00;;;;4921155;28;94018;-62
2023/05/06 07:32:14;;;;;;;8.83;5.67;;;13.70;99.90;13.70;100559.00;;;;4919653;28;102714;-63
2023/05/06 07:34:40;;;;;;;6.87;4.50;;;13.70;99.90;13.80;100561.00;;;;4925086;28;93024;-63
2023/05/06 07:37:07;;;;;;;10.37;4.80;;;13.80;99.90;13.90;100550.00;;;;4923941;28;108214;-63
2023/05/06 07:39:32;;;;;;;5.27;4.60;;;13.80;99.90;13.90;100553.00;;;;4926204;28;94467;-62
2023/05/06 07:41:58;;;;;;;7.57;5.23;;;13.90;99.90;14.00;100550.00;;;;4923848;28;114185;-63
2023/05/06 07:44:24;;;;;;;10.88;5.40;;;13.90;99.90;13.90;100563.00;;;;4922268;28;108712;-64
2023/05/06 07:46:50;;;;;;;9.20;4.93;;;13.90;99.90;14.00;100561.00;;;;4926263;28;108342;-63
2023/05/06 07:49:15;;;;;;;8.20;5.93;;;13.90;99.90;13.90;100566.00;;;;4924429;28;121612;-63
2023/05/06 07:51:41;;;;;;;9.38;6.00;;;13.90;99.90;13.90;100572.00;;;;4922033;28;121565;-63
2023/05/06 07:54:07;;;;;;;6.35;5.68;;;13.90;99.90;13.90;100571.00;;;;4921915;28;99721;-62
2023/05/06 07:56:32;;;;;;;7.40;5.40;;;13.90;99.90;13.90;100570.00;;;;4924108;28;108155;-62
2023/05/06 07:58:58;;;;;;;7.77;5.77;;;13.90;99.90;13.90;100577.00;;;;4910036;28;124246;-61
2023/05/06 08:01:24;;;;;;;14.37;6.43;;;13.90;99.90;14.00;100578.00;;;;4922181;28;93626;-61
2023/05/06 08:03:50;;;;;;;8.77;6.67;;;13.90;99.90;14.00;100572.00;;;;4920143;28;111294;-62
2023/05/06 08:06:16;;;;;;;8.43;5.27;;;13.90;99.90;14.10;100574.00;;;;4922365;28;108787;-63
2023/05/06 08:08:41;;;;;;;7.28;6.10;;;14.00;99.90;14.10;100576.00;;;;4922604;28;120764;-61
2023/05/06 08:11:07;;;;;;;7.10;5.63;;;14.10;99.90;14.20;100588.00;;;;4919991;28;111371;-62
2023/05/06 08:13:33;;;;;;;9.10;6.27;;;14.20;99.90;14.30;100591.00;;;;4922743;28;111486;-61
2023/05/06 08:16:01;;;;;;;8.10;6.13;;;14.20;99.90;14.30;100602.00;;;;4921589;28;93100;-63
2023/05/06 08:18:26;;;;;;;10.85;6.35;;;14.20;99.90;14.40;100602.00;;;;4923206;28;94273;-62
2023/05/06 08:20:52;;;;;;;11.13;6.68;;;14.30;99.90;14.40;100598.00;;;;4919360;28;113959;-61
2023/05/06 08:23:19;;;;;;;11.95;7.03;;;14.40;99.90;14.40;100605.00;;;;4923044;28;92876;-61
2023/05/06 08:25:45;;;;;;;12.80;6.72;;;14.40;99.90;14.40;100603.00;;;;4919620;28;97782;-61
2023/05/06 08:28:11;;;;;;;10.60;6.77;;;14.40;99.90;14.40;100610.00;;;;4919586;28;94197;-62
2023/05/06 08:30:36;;;;;;;15.57;6.25;;;14.40;99.90;14.40;100615.00;;;;4920031;28;123344;-62
2023/05/06 08:33:02;;;;;;;8.77;6.90;;;14.40;99.90;14.30;100621.00;;;;4919047;28;110378;-60
2023/05/06 08:35:28;;;;;;;7.77;6.53;;;14.30;99.90;14.20;100625.00;;;;4924551;28;93376;-61
2023/05/06 08:37:53;;;;;;;10.75;7.85;;;14.20;99.90;14.10;100622.00;;;;4922723;28;121487;-62
2023/05/06 08:40:22;;;;;;;13.27;8.30;;;14.10;99.90;14.00;100629.00;;;;4920568;28;121964;-62
2023/05/06 08:42:49;;;;;;;9.40;6.83;;;14.10;99.90;14.00;100633.00;;;;4922605;28;92928;-63
2023/05/06 08:45:18;;;;;;;16.50;7.63;;;14.00;99.90;13.90;100637.00;;;;4922598;28;93949;-62
2023/05/06 08:47:46;;;;;;;7.88;6.25;;;14.00;99.90;13.90;100644.00;;;;4920124;28;93663;-61
2023/05/06 08:50:12;;;;;;;13.17;6.93;;;13.90;99.90;13.90;100646.00;;;;4926888;28;93108;-62
2023/05/06 08:52:38;;;;;;;13.77;7.10;;;13.90;99.90;13.80;100642.00;;;;4903546;28;108124;-63
2023/05/06 08:55:06;;;;;;;11.77;7.03;;;13.90;99.90;13.80;100645.00;;;;4923812;28;93701;-63
2023/05/06 08:57:33;;;;;;;7.60;6.47;;;13.80;99.90;13.80;100653.00;;;;4894533;28;93918;-65
2023/05/06 08:59:59;;;;;;;10.80;6.07;;;13.80;99.90;13.80;100654.00;;;;4920144;28;93079;-65
2023/05/06 09:02:25;;;;;;;9.10;6.70;;;13.80;99.90;13.90;100664.00;;;;4918668;28;100996;-65
2023/05/06 09:04:53;;;;;;;15.87;8.10;;;13.80;99.90;13.90;100660.00;;;;4924681;28;100920;-64
2023/05/06 09:07:23;;;;;;;10.40;6.47;;;13.90;99.90;13.90;100655.00;;;;4924762;28;93339;-65
2023/05/06 09:09:50;;;;;;;8.93;6.57;;;13.80;99.90;13.80;100661.00;;;;4926308;28;95382;-64
2023/05/06 09:12:15;;;;;;;9.20;6.82;;;13.80;99.90;13.80;100652.00;;;;4924990;28;93030;-65
2023/05/06 09:14:42;;;;;;;11.50;6.53;;;13.80;99.90;13.90;100658.00;;;;4923359;28;108579;-64
2023/05/06 09:17:26;;;;;;;11.43;6.00;;;13.80;99.90;13.90;100653.00;;;;4922547;28;93921;-64
2023/05/06 09:19:55;;;;;;;13.07;6.70;;;13.90;99.90;13.90;100666.00;;;;4926611;28;93513;-64
2023/05/06 09:22:26;;;;;;;13.00;7.43;;;13.90;99.90;13.90;100658.00;;;;4925630;28;92889;-63
2023/05/06 09:24:56;;;;;;;18.00;7.95;;;13.90;99.90;14.00;100655.00;;;;4922287;28;103927;-64
2023/05/06 09:27:28;;;;;;;9.77;6.43;;;13.90;99.90;14.00;100669.00;;;;4922634;28;93123;-65
2023/05/06 09:30:10;;;;;;;9.27;7.43;;;13.90;99.90;13.90;100667.00;;;;4923420;28;93442;-62
2023/05/06 09:32:36;;;;;;;11.27;8.10;;;13.90;99.90;13.90;100673.00;;;;4923632;28;93093;-65
2023/05/06 09:35:02;;;;;;;11.80;6.03;;;13.90;99.90;13.90;100672.00;;;;4923962;28;94176;-64
2023/05/06 09:37:28;;;;;;;7.03;5.53;;;13.90;99.90;13.90;100675.00;;;;4920250;28;111359;-63
2023/05/06 09:40:00;;;;;;;14.07;7.40;;;13.90;99.90;13.90;100677.00;;;;4920010;28;93630;-64
2023/05/06 09:42:29;;;;;;;9.13;7.20;;;13.90;99.90;13.90;100676.00;;;;4918616;28;110705;-62
2023/05/06 09:44:58;;;;;;;8.43;5.50;;;13.90;99.90;13.90;100676.00;;;;4921582;28;93247;-64
2023/05/06 09:47:27;;;;;;;7.13;6.43;;;13.90;99.90;13.90;100685.00;;;;4916282;28;93727;-63
2023/05/06 09:49:58;;;;;;;12.30;7.33;;;13.80;99.90;13.90;100682.00;;;;4918396;28;107435;-63
2023/05/06 09:52:25;;;;;;;11.20;7.30;;;13.80;99.90;13.80;100682.00;;;;4920493;28;92543;-63
2023/05/06 09:54:52;;;;;;;9.37;6.00;;;13.80;99.90;13.80;100686.00;;;;4924391;28;93243;-64
2023/05/06 09:57:21;;;;;;;10.27;5.53;;;13.80;99.90;13.90;100692.00;;;;4920825;28;93962;-63
2023/05/06 09:59:47;;;;;;;10.33;6.83;;;13.80;99.90;13.90;100692.00;;;;4915182;28;93980;-63
2023/05/06 10:02:13;;;;;;;8.13;7.00;;;13.90;99.90;13.90;100694.00;;;;4920267;28;93203;-65
2023/05/06 10:04:44;;;;;;;9.67;6.07;;;13.90;99.90;13.90;100701.00;;;;4923655;28;95138;-64
2023/05/06 10:07:14;;;;;;;8.30;6.63;;;13.80;99.90;13.80;100702.00;;;;4920282;28;94028;-63
2023/05/06 10:09:40;;;;;;;16.13;7.60;;;13.80;99.90;13.80;100706.00;;;;4919164;28;93370;-63
2023/05/06 10:12:08;;;;;;;9.27;6.33;;;13.80;99.90;13.70;100705.00;;;;4918721;28;93485;-62
2023/05/06 10:14:37;;;;;;;10.00;6.43;;;13.70;99.90;13.70;100706.00;;;;4917398;28;92858;-64
2023/05/06 10:17:11;;;;;;;6.57;5.50;;;13.70;99.90;13.70;100701.00;;;;4918081;28;93364;-62
2023/05/06 10:19:44;;;;;;;9.27;5.80;;;13.70;99.90;13.70;100700.00;;;;4920875;28;93005;-64
2023/05/06 10:22:44;;;;;;;8.70;6.07;;;13.70;99.90;13.70;100707.00;;;;4918504;28;94103;-64
2023/05/06 10:25:19;;;;;;;9.07;6.57;;;13.70;99.90;13.80;100707.00;;;;4921491;28;102317;-63
2023/05/06 10:27:47;;;;;;;7.97;4.93;;;13.70;99.90;13.80;100704.00;;;;4919677;28;93169;-62
2023/05/06 10:30:18;;;;;;;8.27;5.40;;;13.80;99.90;13.90;100698.00;;;;4920467;28;121523;-63
2023/05/06 10:32:45;;;;;;;7.27;5.37;;;14.20;99.90;13.90;100708.00;;;;4920227;28;93063;-64
2023/05/06 10:35:31;;;;;;;8.83;6.67;;;13.80;99.90;13.90;100694.00;;;;4919472;28;93314;-63
2023/05/06 10:37:57;;;;;;;9.63;5.30;;;13.80;99.90;13.80;100702.00;;;;4919489;28;93791;-65
2023/05/06 10:40:23;;;;;;;6.13;5.23;;;13.80;99.90;13.90;100701.00;;;;4916046;28;123574;-63
2023/05/06 10:42:50;;;;;;;8.17;5.50;;;13.80;99.90;13.90;100700.00;;;;4920534;28;109894;-64